createdAt,value
2019-02-15T00:01:11.230Z,7.55
2019-02-15T00:03:37.730Z,7.90
2019-02-15T00:06:04.326Z,7.60
2019-02-15T00:08:30.941Z,8.10
2019-02-15T00:10:57.466Z,7.17
2019-02-15T00:13:24.081Z,7.03
2019-02-15T00:15:50.731Z,8.53
2019-02-15T00:18:17.494Z,8.10
2019-02-15T00:20:44.081Z,8.10
2019-02-15T00:23:10.710Z,6.67
2019-02-15T00:25:37.241Z,7.33
2019-02-15T00:28:03.788Z,7.20
2019-02-15T00:30:30.370Z,7.65
2019-02-15T00:32:56.969Z,6.95
2019-02-15T00:35:23.573Z,8.80
2019-02-15T00:37:50.290Z,7.67
2019-02-15T00:40:16.939Z,7.50
2019-02-15T00:42:43.578Z,8.08
2019-02-15T00:45:10.059Z,8.20
2019-02-15T00:47:36.698Z,7.55
2019-02-15T00:50:03.174Z,8.35
2019-02-15T00:52:29.847Z,6.72
2019-02-15T00:54:56.373Z,7.20
2019-02-15T00:57:23.079Z,7.05
2019-02-15T00:59:49.744Z,8.33
2019-02-15T01:02:16.525Z,6.60
2019-02-15T01:04:43.087Z,6.17
2019-02-15T01:07:09.730Z,7.35
2019-02-15T01:09:36.272Z,6.15
2019-02-15T01:12:02.819Z,6.33
2019-02-15T01:14:29.392Z,6.70
2019-02-15T01:16:56.087Z,6.92
2019-02-15T01:19:22.683Z,7.40
2019-02-15T01:21:49.356Z,6.50
2019-02-15T01:24:15.944Z,5.37
2019-02-15T01:26:42.431Z,6.70
2019-02-15T01:29:09.119Z,7.05
2019-02-15T01:31:35.662Z,6.87
2019-02-15T01:34:02.284Z,5.92
2019-02-15T01:36:28.784Z,6.30
2019-02-15T01:38:55.498Z,6.15
2019-02-15T01:41:22.085Z,6.53
2019-02-15T01:43:48.722Z,5.30
2019-02-15T01:46:15.481Z,5.20
2019-02-15T01:48:42.208Z,5.20
2019-02-15T01:51:08.749Z,5.35
2019-02-15T01:53:35.341Z,5.92
2019-02-15T01:56:01.871Z,5.15
2019-02-15T01:58:28.406Z,5.97
2019-02-15T02:00:54.932Z,4.42
2019-02-15T02:03:21.556Z,6.50
2019-02-15T02:05:48.248Z,5.40
2019-02-15T02:08:14.968Z,6.05
2019-02-15T02:10:41.736Z,7.08
2019-02-15T02:13:08.317Z,7.95
2019-02-15T02:15:34.824Z,7.83
2019-02-15T02:18:01.512Z,6.83
2019-02-15T02:20:28.031Z,6.20
2019-02-15T02:22:54.749Z,7.53
2019-02-15T02:25:21.359Z,7.72
2019-02-15T02:27:48.042Z,8.10
2019-02-15T02:30:14.700Z,6.62
2019-02-15T02:32:41.479Z,6.70
2019-02-15T02:35:07.987Z,6.92
2019-02-15T02:37:34.600Z,6.33
2019-02-15T02:40:01.168Z,5.78
2019-02-15T02:42:27.801Z,8.95
2019-02-15T02:44:54.328Z,6.55
2019-02-15T02:47:20.946Z,6.90
2019-02-15T02:49:47.530Z,6.10
2019-02-15T02:52:14.221Z,6.10
2019-02-15T02:54:40.853Z,6.08
2019-02-15T02:57:07.355Z,5.62
2019-02-15T02:59:34.052Z,4.35
2019-02-15T03:02:00.561Z,4.95
2019-02-15T03:04:27.165Z,4.85
2019-02-15T03:06:53.703Z,4.95
2019-02-15T03:09:20.365Z,5.22
2019-02-15T03:11:46.946Z,4.78
2019-02-15T03:14:13.590Z,4.40
2019-02-15T03:16:40.157Z,4.90
2019-02-15T03:19:06.769Z,5.20
2019-02-15T03:21:33.282Z,5.35
2019-02-15T03:23:59.886Z,4.00
2019-02-15T03:26:26.406Z,3.98
2019-02-15T03:28:53.246Z,4.03
2019-02-15T03:31:19.845Z,3.75
2019-02-15T03:33:46.465Z,5.00
2019-02-15T03:36:12.981Z,4.08
2019-02-15T03:38:39.665Z,3.70
2019-02-15T03:41:06.136Z,3.40
2019-02-15T03:43:32.764Z,4.35
2019-02-15T03:45:59.314Z,3.77
2019-02-15T03:48:25.844Z,3.00
2019-02-15T03:50:52.437Z,5.20
2019-02-15T03:53:19.181Z,4.35
2019-02-15T03:55:45.744Z,3.85
2019-02-15T03:58:12.385Z,4.58
2019-02-15T04:00:38.990Z,4.15
2019-02-15T04:03:05.604Z,4.65
2019-02-15T04:05:32.162Z,3.80
2019-02-15T04:07:58.731Z,6.03
2019-02-15T04:10:25.315Z,4.40
2019-02-15T04:12:51.992Z,5.83
2019-02-15T04:15:18.743Z,5.00
2019-02-15T04:17:45.540Z,3.77
2019-02-15T04:20:12.257Z,3.70
2019-02-15T04:22:38.872Z,4.47
2019-02-15T04:25:05.524Z,4.03
2019-02-15T04:27:32.146Z,3.02
2019-02-15T04:29:58.909Z,5.10
2019-02-15T04:32:25.648Z,4.33
2019-02-15T04:34:52.336Z,4.22
2019-02-15T04:37:19.021Z,4.17
2019-02-15T04:39:45.796Z,3.85
2019-02-15T04:42:12.400Z,3.80
2019-02-15T04:44:42.885Z,4.28
2019-02-15T04:47:07.487Z,3.62
2019-02-15T04:49:34.164Z,3.92
2019-02-15T04:52:00.777Z,3.77
2019-02-15T04:54:27.363Z,3.98
2019-02-15T04:56:54.057Z,4.17
2019-02-15T04:59:20.775Z,4.28
2019-02-15T05:01:47.416Z,5.05
2019-02-15T05:04:14.146Z,3.90
2019-02-15T05:06:40.710Z,3.33
2019-02-15T05:09:07.474Z,4.20
2019-02-15T05:11:34.029Z,5.00
2019-02-15T05:14:00.701Z,3.77
2019-02-15T05:16:27.359Z,4.35
2019-02-15T05:18:54.036Z,3.72
2019-02-15T05:21:20.709Z,3.70
2019-02-15T05:23:47.449Z,3.75
2019-02-15T05:26:14.069Z,5.17
2019-02-15T05:28:40.729Z,6.30
2019-02-15T05:31:07.377Z,5.70
2019-02-15T05:33:35.638Z,4.97
2019-02-15T05:36:02.512Z,4.55
2019-02-15T05:38:29.237Z,4.87
2019-02-15T05:40:56.023Z,4.15
2019-02-15T05:43:22.616Z,4.65
2019-02-15T05:45:49.407Z,5.15
2019-02-15T05:48:16.005Z,5.28
2019-02-15T05:50:42.906Z,5.12
2019-02-15T05:53:09.578Z,4.12
2019-02-15T05:55:36.329Z,5.25
2019-02-15T05:58:02.965Z,5.47
2019-02-15T06:00:36.713Z,4.28
2019-02-15T06:02:58.029Z,4.62
2019-02-15T06:05:24.723Z,4.55
2019-02-15T06:07:51.400Z,4.67
2019-02-15T06:10:18.310Z,4.72
2019-02-15T06:12:45.003Z,4.28
2019-02-15T06:15:15.169Z,5.47
2019-02-15T06:17:40.090Z,6.53
2019-02-15T06:20:06.884Z,6.05
2019-02-15T06:22:33.531Z,5.80
2019-02-15T06:25:00.302Z,5.45
2019-02-15T06:27:27.066Z,6.03
2019-02-15T06:29:53.823Z,4.72
2019-02-15T06:32:20.463Z,6.40
2019-02-15T06:34:47.124Z,5.85
2019-02-15T06:37:13.775Z,4.55
2019-02-15T06:39:40.443Z,5.30
2019-02-15T06:42:06.983Z,4.53
2019-02-15T06:44:33.681Z,4.80
2019-02-15T06:47:00.408Z,5.50
2019-02-15T06:49:27.186Z,5.45
2019-02-15T06:51:53.702Z,5.20
2019-02-15T06:54:20.417Z,4.58
2019-02-15T06:56:47.076Z,5.33
2019-02-15T06:59:13.678Z,6.05
2019-02-15T07:01:40.436Z,7.20
2019-02-15T07:04:07.031Z,7.00
2019-02-15T07:06:33.831Z,6.40
2019-02-15T07:09:00.518Z,6.50
2019-02-15T07:11:27.246Z,7.72
2019-02-15T07:13:53.949Z,8.20
2019-02-15T07:16:20.770Z,8.85
2019-02-15T07:18:47.309Z,10.03
2019-02-15T07:21:13.944Z,10.65
2019-02-15T07:23:40.527Z,10.45
2019-02-15T07:26:07.494Z,11.15
2019-02-15T07:28:34.141Z,9.50
2019-02-15T07:31:01.301Z,8.13
2019-02-15T07:33:28.185Z,7.67
2019-02-15T07:35:55.259Z,7.65
2019-02-15T07:38:24.878Z,7.45
2019-02-15T07:40:52.139Z,6.42
2019-02-15T07:43:18.940Z,6.05
2019-02-15T07:45:45.866Z,5.92
2019-02-15T07:48:12.647Z,4.78
2019-02-15T07:50:39.599Z,5.78
2019-02-15T07:53:06.349Z,5.65
2019-02-15T07:55:33.062Z,5.70
2019-02-15T07:57:59.945Z,4.92
2019-02-15T08:00:26.793Z,6.00
2019-02-15T08:02:53.650Z,6.35
2019-02-15T08:05:20.396Z,6.17
2019-02-15T08:07:47.120Z,5.85
2019-02-15T08:10:13.778Z,6.40
2019-02-15T08:12:40.358Z,6.45
2019-02-15T08:15:07.022Z,6.20
2019-02-15T08:17:33.627Z,6.00
2019-02-15T08:20:00.411Z,5.78
2019-02-15T08:22:27.077Z,8.25
2019-02-15T08:24:56.749Z,7.50
2019-02-15T08:27:23.546Z,6.28
2019-02-15T08:29:50.192Z,6.37
2019-02-15T08:32:17.252Z,6.17
2019-02-15T08:34:43.907Z,6.50
2019-02-15T08:37:11.067Z,6.90
2019-02-15T08:39:37.785Z,7.05
2019-02-15T08:42:04.779Z,7.37
2019-02-15T08:44:31.573Z,8.15
2019-02-15T08:46:58.244Z,9.10
2019-02-15T08:49:24.902Z,7.97
2019-02-15T08:51:51.744Z,7.92
2019-02-15T08:54:18.534Z,7.10
2019-02-15T08:56:45.671Z,8.15
2019-02-15T08:59:12.331Z,6.97
2019-02-15T09:01:39.112Z,6.60
2019-02-15T09:04:05.825Z,8.60
2019-02-15T09:06:32.763Z,7.90
2019-02-15T09:08:59.890Z,10.10
2019-02-15T09:11:26.630Z,8.75
2019-02-15T09:13:53.430Z,9.00
2019-02-15T09:16:20.163Z,9.05
2019-02-15T09:18:47.969Z,10.93
2019-02-15T09:21:14.656Z,9.10
2019-02-15T09:23:41.400Z,9.00
2019-02-15T09:26:08.271Z,8.28
2019-02-15T09:28:35.152Z,8.85
2019-02-15T09:31:01.993Z,9.70
2019-02-15T09:33:28.844Z,9.58
2019-02-15T09:35:55.892Z,9.00
2019-02-15T09:38:22.539Z,8.85
2019-02-15T09:40:49.662Z,8.25
2019-02-15T09:43:16.303Z,9.13
2019-02-15T09:45:43.380Z,7.83
2019-02-15T09:48:10.144Z,8.30
2019-02-15T09:50:37.208Z,8.43
2019-02-15T09:53:03.976Z,8.58
2019-02-15T09:55:32.259Z,8.70
2019-02-15T09:57:59.059Z,8.58
2019-02-15T10:00:25.897Z,7.53
2019-02-15T10:02:52.682Z,7.72
2019-02-15T10:05:19.523Z,5.72
2019-02-15T10:07:46.458Z,5.75
2019-02-15T10:10:13.200Z,6.22
2019-02-15T10:12:40.217Z,5.55
2019-02-15T10:15:07.273Z,6.15
2019-02-15T10:17:34.279Z,5.42
2019-02-15T10:20:01.038Z,5.17
2019-02-15T10:22:27.988Z,5.35
2019-02-15T10:24:54.716Z,4.90
2019-02-15T10:27:21.679Z,4.83
2019-02-15T10:29:48.391Z,5.72
2019-02-15T10:32:15.277Z,4.85
2019-02-15T10:34:42.101Z,5.35
2019-02-15T10:37:08.938Z,5.00
2019-02-15T10:39:35.937Z,5.03
2019-02-15T10:42:02.809Z,4.50
2019-02-15T10:44:29.656Z,4.00
2019-02-15T10:46:56.551Z,4.70
2019-02-15T10:49:23.509Z,7.22
2019-02-15T10:51:50.369Z,4.17
2019-02-15T10:54:17.019Z,4.42
2019-02-15T10:56:43.712Z,4.65
2019-02-15T10:59:11.232Z,4.90
2019-02-15T11:01:38.006Z,3.95
2019-02-15T11:04:04.885Z,3.72
2019-02-15T11:06:32.065Z,4.15
2019-02-15T11:08:58.785Z,3.58
2019-02-15T11:11:25.547Z,3.60
2019-02-15T11:13:52.225Z,3.70
2019-02-15T11:16:18.905Z,3.90
2019-02-15T11:18:45.786Z,3.50
2019-02-15T11:21:12.407Z,3.67
2019-02-15T11:23:39.345Z,4.42
2019-02-15T11:26:09.017Z,4.72
2019-02-15T11:28:35.813Z,4.85
2019-02-15T11:31:02.766Z,5.75
2019-02-15T11:33:30.026Z,4.78
2019-02-15T11:35:56.659Z,5.30
2019-02-15T11:38:23.698Z,6.55
2019-02-15T11:40:50.544Z,5.40
2019-02-15T11:43:17.585Z,6.08
2019-02-15T11:45:44.448Z,5.80
2019-02-15T11:48:11.245Z,6.53
2019-02-15T11:50:38.807Z,5.20
2019-02-15T11:53:06.000Z,5.20
2019-02-15T11:55:32.958Z,5.90
2019-02-15T11:57:59.816Z,5.22
2019-02-15T12:00:27.018Z,5.45
2019-02-15T12:02:53.957Z,5.45
2019-02-15T12:05:20.909Z,6.12
2019-02-15T12:07:47.971Z,5.53
2019-02-15T12:10:14.943Z,5.92
2019-02-15T12:12:42.027Z,5.60
2019-02-15T12:15:08.894Z,5.85
2019-02-15T12:17:35.865Z,6.10
2019-02-15T12:20:02.528Z,6.37
2019-02-15T12:22:29.307Z,6.22
2019-02-15T12:24:55.998Z,6.80
2019-02-15T12:27:22.868Z,5.20
2019-02-15T12:29:49.761Z,4.70
2019-02-15T12:32:16.565Z,5.37
2019-02-15T12:34:43.491Z,5.50
2019-02-15T12:37:10.572Z,5.35
2019-02-15T12:39:37.393Z,4.47
2019-02-15T12:42:04.467Z,4.95
2019-02-15T12:44:31.262Z,5.72
2019-02-15T12:46:58.522Z,5.00
2019-02-15T12:49:25.283Z,5.70
2019-02-15T12:51:52.242Z,5.40
2019-02-15T12:54:19.008Z,5.40
2019-02-15T12:56:45.748Z,4.55
2019-02-15T12:59:12.650Z,4.62
2019-02-15T13:01:39.290Z,5.65
2019-02-15T13:04:06.190Z,4.90
2019-02-15T13:06:32.857Z,4.50
2019-02-15T13:08:59.792Z,4.65
2019-02-15T13:11:26.441Z,4.00
2019-02-15T13:13:53.448Z,4.35
2019-02-15T13:16:20.096Z,4.22
2019-02-15T13:18:46.996Z,4.08
2019-02-15T13:21:13.837Z,4.45
2019-02-15T13:23:40.694Z,3.65
2019-02-15T13:26:08.917Z,3.80
2019-02-15T13:28:36.014Z,4.22
2019-02-15T13:31:02.594Z,4.30
2019-02-15T13:33:29.396Z,4.00
2019-02-15T13:35:56.254Z,4.08
2019-02-15T13:38:23.120Z,4.00
2019-02-15T13:40:49.868Z,4.40
2019-02-15T13:43:16.852Z,4.40
2019-02-15T13:45:43.503Z,3.95
2019-02-15T13:48:10.386Z,3.35
2019-02-15T13:50:37.157Z,3.95
2019-02-15T13:53:03.987Z,4.60
2019-02-15T13:55:30.832Z,4.00
2019-02-15T13:57:57.632Z,3.70
2019-02-15T14:00:24.608Z,3.70
2019-02-15T14:02:51.427Z,3.37
2019-02-15T14:05:18.324Z,3.37
2019-02-15T14:07:44.860Z,3.45
2019-02-15T14:10:11.653Z,4.25
2019-02-15T14:12:38.591Z,3.83
2019-02-15T14:15:07.248Z,3.62
2019-02-15T14:17:42.397Z,4.00
2019-02-15T14:20:02.598Z,4.10
2019-02-15T14:22:29.460Z,5.12
2019-02-15T14:24:58.177Z,4.10
2019-02-15T14:27:24.775Z,3.62
2019-02-15T14:29:51.585Z,4.53
2019-02-15T14:32:18.243Z,3.72
2019-02-15T14:34:45.303Z,4.17
2019-02-15T14:37:12.044Z,3.75
2019-02-15T14:39:38.891Z,4.10
2019-02-15T14:42:05.702Z,4.42
2019-02-15T14:44:32.820Z,3.45
2019-02-15T14:46:59.983Z,3.67
2019-02-15T14:49:26.765Z,4.00
2019-02-15T14:51:53.556Z,3.70
2019-02-15T14:54:20.287Z,3.52
2019-02-15T14:56:47.080Z,3.30
2019-02-15T14:59:13.727Z,3.42
2019-02-15T15:01:40.410Z,4.05
2019-02-15T15:04:07.486Z,3.70
2019-02-15T15:06:34.322Z,3.67
2019-02-15T15:09:01.258Z,3.55
2019-02-15T15:11:27.988Z,3.67
2019-02-15T15:13:54.775Z,3.20
2019-02-15T15:16:21.618Z,4.12
2019-02-15T15:18:48.455Z,3.50
2019-02-15T15:21:15.190Z,3.92
2019-02-15T15:23:42.164Z,4.65
2019-02-15T15:26:11.843Z,3.70
2019-02-15T15:28:37.760Z,4.65
2019-02-15T15:31:04.630Z,3.65
2019-02-15T15:33:31.467Z,4.17
2019-02-15T15:35:58.227Z,4.33
2019-02-15T15:38:25.271Z,4.58
2019-02-15T15:40:51.981Z,6.20
2019-02-15T15:43:18.852Z,4.10
2019-02-15T15:45:45.775Z,5.35
2019-02-15T15:48:22.067Z,5.50
2019-02-15T15:50:41.127Z,4.83
2019-02-15T15:53:08.049Z,7.65
2019-02-15T15:55:34.770Z,6.20
2019-02-15T15:58:01.609Z,7.87
2019-02-15T16:00:28.203Z,6.87
2019-02-15T16:02:54.891Z,7.35
2019-02-15T16:05:21.625Z,6.37
2019-02-15T16:07:48.306Z,8.23
2019-02-15T16:10:15.045Z,6.95
2019-02-15T16:12:41.789Z,8.75
2019-02-15T16:15:08.571Z,6.65
2019-02-15T16:17:35.189Z,6.37
2019-02-15T16:20:01.789Z,5.50
2019-02-15T16:22:28.483Z,6.58
2019-02-15T16:24:55.024Z,6.05
2019-02-15T16:27:21.647Z,4.62
2019-02-15T16:29:48.605Z,5.50
2019-02-15T16:32:15.434Z,5.40
2019-02-15T16:34:42.190Z,5.30
2019-02-15T16:37:08.869Z,5.60
2019-02-15T16:39:35.789Z,5.50
2019-02-15T16:42:02.532Z,4.90
2019-02-15T16:44:29.539Z,7.30
2019-02-15T22:21:57.442Z,9.03
